Latest Coastal Weather Observations for Yarram Airport

IDV60701

Issued at 8:21 am EDT Tuesday 9 February 2016 (issued every 10 minutes, with the page automatically refreshed every 10 minutes)

About coastal observations | Map of coastal stations | Coastal observations for VIC | Marine services | Other Formats
Station Details ID: 085151 Name: YARRAM AIRPORT Lat: -38.56 Lon: 146.75 Height: 17.9 m
Data from the previous 72 hours. | See also: Recent months at Yarram Airport
Date/Time
EDT
Temp

°C
Wind Pressure Rain
since 9am
mm
Weather Cloud Vis
km
Sea
Height
m
Swell
Dir
 
Speed
knots
Gust
knots
hPa Trend Height
m
Period
s
Dir
09/08:00am 16.6 WNW 5 7 1021.2 - 0.0 - - - - - - -
09/07:30am 15.4 WNW 7 9 1021.1 - 0.0 - - - - - - -
09/07:00am 14.1 NW 8 9 1020.9 - 0.0 - - - - - - -
09/06:30am 13.5 NW 8 9 1020.9 - 0.0 - - - - - - -
09/06:00am 13.7 NW 9 10 1020.5 - 0.0 - - - - - - -
09/05:30am 13.7 NW 7 9 1020.5 - 0.0 - - - - - - -
09/05:00am 14.6 NW 8 9 1020.5 - 0.0 - - - - - - -
09/04:30am 15.7 NW 8 10 1020.5 - 0.0 - - - - - - -
09/04:00am 15.8 NNW 7 9 1020.7 - 0.0 - - - - - - -
09/03:30am 15.7 NW 8 10 1020.7 - 0.0 - - - - - - -
09/03:00am 15.7 NW 7 9 1020.9 - 0.0 - - - - - - -
09/02:30am 16.0 W 9 11 1021.0 - 0.0 - - - - - - -
09/02:00am 16.3 W 10 12 1021.3 - 0.0 - - - - - - -
09/01:30am 15.8 W 8 11 1021.4 - 0.0 - - - - - - -
09/01:00am 15.5 WNW 7 9 1021.6 - 0.0 - - - - - - -
09/12:30am 16.0 W 10 12 1021.5 - 0.0 - - - - - - -
09/12:00am 16.3 W 8 11 1021.6 - 0.0 - - - - - - -
 
Date/Time
EDT
Temp

°C
Wind Pressure Rain
since 9am
mm
Weather Cloud Vis
km
Sea
Height
m
Swell
Dir
 
Speed
knots
Gust
knots
hPa Trend Height
m
Period
s
Dir
08/11:30pm 16.7 W 10 12 1021.7 - 0.0 - - - - - - -
08/11:00pm 17.0 W 12 15 1021.7 - 0.0 - - - - - - -
08/10:30pm 17.1 W 11 15 1022.0 - 0.0 - - - - - - -
08/10:00pm 16.9 NW 9 11 1021.9 - 0.0 - - - - - - -
08/09:30pm 17.7 WSW 13 18 1021.6 - 0.0 - - - - - - -
08/09:00pm 17.9 WSW 10 13 1021.4 - 0.0 - - - - - - -
08/08:30pm 18.5 WSW 10 14 1021.1 - 0.0 - - - - - - -
08/08:00pm 19.4 WSW 11 16 1020.9 - 0.0 - - - - - - -
08/07:30pm 20.3 WSW 15 20 1020.6 - 0.0 - - - - - - -
08/07:00pm 21.1 WSW 20 24 1020.2 - 0.0 - - - - - - -
08/06:50pm 21.3 WSW 19 23 1020.1 - 0.0 - - - - - - -
08/06:30pm 21.9 SW 19 23 1020.2 - 0.0 - - - - - - -
08/06:00pm 22.4 SW 21 26 1020.0 - 0.0 - - - - - - -
08/05:30pm 23.4 SW 20 26 1019.9 - 0.0 - - - - - - -
08/05:00pm 23.7 WSW 21 27 1020.0 - 0.0 - - - - - - -
08/04:30pm 23.8 SW 22 28 1020.2 - 0.0 - - - - - - -
08/04:00pm 24.1 SW 20 27 1020.1 - 0.0 - - - - - - -
08/03:30pm 25.1 SW 20 26 1020.2 - 0.0 - - - - - - -
08/03:00pm 25.7 SW 19 25 1020.3 - 0.0 - - - - - - -
08/02:30pm 25.1 SW 19 25 1020.3 - 0.0 - - - - - - -
08/02:00pm 25.2 SW 20 25 1020.4 - 0.0 - - - - - - -
08/01:30pm 25.3 SW 19 25 1020.4 - 0.0 - - - - - - -
08/01:00pm 25.9 SW 19 24 1020.6 - 0.0 - - - - - - -
08/12:30pm 25.5 WSW 19 24 1020.8 - 0.0 - - - - - - -
08/12:00pm 24.4 SW 15 20 1020.9 - 0.0 - - - - - - -
08/11:30am 24.1 WSW 14 19 1020.9 - 0.0 - - - - - - -
08/11:00am 23.4 WSW 15 22 1020.8 - 0.0 - - - - - - -
08/10:30am 23.7 WSW 16 21 1020.9 - 0.0 - - - - - - -
08/10:00am 22.4 WSW 16 21 1020.8 - 0.0 - - - - - - -
08/09:30am 22.0 WSW 14 20 1020.6 - 0.0 - - - - - - -
08/09:00am 21.0 WSW 14 18 1020.4 - 0.0 - - - - - - -
08/08:30am 20.2 WSW 14 18 1020.2 - 0.0 - - - - - - -
08/08:00am 19.2 WSW 14 17 1019.8 - 0.0 - - - - - - -
08/07:30am 18.2 WSW 8 10 1019.7 - 0.0 - - - - - - -
08/07:00am 17.3 WSW 7 10 1019.6 - 0.0 - - - - - - -
08/06:30am 17.2 WSW 9 11 1019.3 - 0.0 - - - - - - -
08/06:00am 17.3 WSW 9 13 1018.9 - 0.0 - - - - - - -
08/05:30am 17.5 WSW 12 16 1018.7 - 0.0 - - - - - - -
08/05:00am 16.8 WSW 9 13 1018.5 - 0.0 - - - - - - -
08/04:30am 16.5 W 9 11 1018.2 - 0.0 - - - - - - -
08/04:00am 16.4 WSW 9 11 1018.2 - 0.0 - - - - - - -
08/03:30am 15.9 W 7 8 1018.2 - 0.0 - - - - - - -
08/03:00am 16.0 WNW 7 8 1018.3 - 0.0 - - - - - - -
08/02:30am 17.8 WSW 13 17 1018.4 - 0.0 - - - - - - -
08/02:00am 18.1 WSW 13 17 1018.5 - 0.0 - - - - - - -
08/01:30am 18.1 WSW 12 15 1018.6 - 0.0 - - - - - - -
08/01:00am 16.6 W 6 7 1018.5 - 0.0 - - - - - - -
08/12:30am 16.1 NNW 4 5 1018.3 - 0.0 - - - - - - -
08/12:00am 16.7 CALM 0 0 1018.2 - 0.0 - - - - - - -
 
Date/Time
EDT
Temp

°C
Wind Pressure Rain
since 9am
mm
Weather Cloud Vis
km
Sea
Height
m
Swell
Dir
 
Speed
knots
Gust
knots
hPa Trend Height
m
Period
s
Dir
07/11:30pm 17.6 CALM 0 0 1018.3 - 0.0 - - - - - - -
07/11:00pm 17.0 CALM 0 0 1018.4 - 0.0 - - - - - - -
07/10:30pm 16.9 CALM 0 0 1018.4 - 0.0 - - - - - - -
07/10:00pm 18.9 CALM 0 0 1018.2 - 0.0 - - - - - - -
07/09:30pm 18.7 CALM 0 0 1017.9 - 0.0 - - - - - - -
07/09:00pm 20.2 ESE 3 4 1017.6 - 0.0 - - - - - - -
07/08:30pm 21.8 ESE 5 5 1017.2 - 0.0 - - - - - - -
07/08:00pm 23.1 E 4 5 1017.0 - 0.0 - - - - - - -
07/07:30pm 24.0 ESE 6 7 1016.7 - 0.0 - - - - - - -
07/07:00pm 24.6 ESE 5 8 1016.5 - 0.0 - - - - - - -
07/06:30pm 25.0 SE 7 8 1016.3 - 0.0 - - - - - - -
07/06:00pm 25.6 SE 8 10 1016.1 - 0.0 - - - - - - -
07/05:30pm 25.9 ESE 8 11 1015.9 - 0.0 - - - - - - -
07/05:00pm 26.8 ESE 9 12 1015.8 - 0.0 - - - - - - -
07/04:30pm 27.3 SE 7 10 1015.8 - 0.0 - - - - - - -
07/04:00pm 27.9 SE 8 11 1015.8 - 0.0 - - - - - - -
07/03:30pm 27.5 SE 8 12 1015.7 - 0.0 - - - - - - -
07/03:00pm 27.7 ESE 8 11 1015.8 - 0.0 - - - - - - -
07/02:30pm 28.2 SE 9 13 1016.0 - 0.0 - - - - - - -
07/02:00pm 27.6 SE 9 13 1016.1 - 0.0 - - - - - - -
07/01:30pm 28.1 SSE 8 12 1016.1 - 0.0 - - - - - - -
07/01:00pm 27.1 SSE 6 10 1016.4 - 0.0 - - - - - - -
07/12:30pm 26.0 SSE 6 9 1016.6 - 0.0 - - - - - - -
07/12:00pm 26.1 SSE 6 10 1016.7 - 0.0 - - - - - - -
07/11:30am 25.4 S 6 9 1016.8 - 0.0 - - - - - - -
07/11:00am 24.6 SSE 5 8 1016.8 - 0.0 - - - - - - -
07/10:30am 23.5 SSE 4 6 1016.9 - 0.0 - - - - - - -
07/10:00am 22.6 E 2 4 1016.8 - 0.0 - - - - - - -
07/09:30am 20.7 WSW 2 4 1016.8 - 0.0 - - - - - - -
07/09:00am 18.7 WNW 3 5 1016.9 - 0.0 - - - - - - -
07/08:30am 17.1 W 5 6 1016.7 - 0.0 - - - - - - -
07/08:00am 14.9 CALM 0 0 1016.4 - 0.0 - - - - - - -
07/07:30am 13.0 CALM 0 0 1016.2 - 0.0 - - - - - - -
07/07:00am 11.1 CALM 0 0 1015.9 - 0.0 - - - - - - -
07/06:30am 11.3 CALM 0 0 1015.7 - 0.0 - - - - - - -
07/06:00am 11.1 CALM 0 0 1015.4 - 0.0 - - - - - - -
07/05:30am 11.5 CALM 0 0 1015.2 - 0.0 - - - - - - -
07/05:00am 11.8 CALM 0 0 1015.2 - 0.0 - - - - - - -
07/04:30am 11.6 CALM 0 0 1015.3 - 0.0 - - - - - - -
07/04:00am 12.2 CALM 0 0 1015.4 - 0.0 - - - - - - -
07/03:30am 12.9 CALM 0 0 1015.5 - 0.0 - - - - - - -
07/03:00am 12.9 N 1 3 1015.6 - 0.0 - - - - - - -
07/02:30am 14.6 NE 4 5 1015.7 - 0.0 - - - - - - -
07/02:00am 14.7 NE 3 4 1015.9 - 0.0 - - - - - - -
07/01:30am 15.2 NE 4 5 1016.2 - 0.0 - - - - - - -
07/01:00am 15.4 NE 5 7 1016.3 - 0.0 - - - - - - -
07/12:30am 14.2 NE 4 5 1016.7 - 0.0 - - - - - - -
07/12:00am 16.1 NE 5 6 1016.9 - 0.0 - - - - - - -
 
Date/Time
EDT
Temp

°C
Wind Pressure Rain
since 9am
mm
Weather Cloud Vis
km
Sea
Height
m
Swell
Dir
 
Speed
knots
Gust
knots
hPa Trend Height
m
Period
s
Dir
06/11:30pm 16.5 NE 5 6 1017.2 - 0.0 - - - - - - -
06/11:00pm 16.5 NE 4 4 1017.5 - 0.0 - - - - - - -
06/10:30pm 16.7 NE 5 5 1017.6 - 0.0 - - - - - - -
06/10:00pm 17.0 NE 4 6 1017.4 - 0.0 - - - - - - -
06/09:30pm 18.3 NE 5 7 1017.2 - 0.0 - - - - - - -
06/09:00pm 19.2 ENE 6 8 1017.2 - 0.0 - - - - - - -
06/08:30pm 19.9 ENE 8 13 1017.0 - 0.0 - - - - - - -
06/08:00pm 20.7 ENE 9 14 1016.8 - 0.0 - - - - - - -
06/07:30pm 21.5 ENE 11 18 1016.5 - 0.0 - - - - - - -
06/07:00pm 22.1 ENE 13 18 1016.4 - 0.0 - - - - - - -
06/06:30pm 22.8 E 14 19 1016.2 - 0.0 - - - - - - -
06/06:00pm 23.3 ENE 14 21 1016.1 - 0.0 - - - - - - -
06/05:30pm 23.9 ENE 13 20 1016.1 - 0.0 - - - - - - -
06/05:00pm 24.2 ENE 13 20 1016.2 - 0.0 - - - - - - -
06/04:30pm 24.1 E 15 21 1016.2 - 0.0 - - - - - - -
06/04:00pm 24.8 E 15 23 1016.3 - 0.0 - - - - - - -
06/03:30pm 25.2 E 14 20 1016.7 - 0.0 - - - - - - -
06/03:00pm 25.6 ENE 13 19 1017.1 - 0.0 - - - - - - -
06/02:30pm 24.8 ENE 15 22 1017.3 - 0.0 - - - - - - -
06/02:00pm 25.2 E 14 19 1017.5 - 0.0 - - - - - - -
06/01:30pm 25.0 E 14 19 1017.6 - 0.0 - - - - - - -
06/01:00pm 24.9 E 13 18 1017.8 - 0.0 - - - - - - -
06/12:30pm 24.9 ENE 13 22 1018.0 - 0.0 - - - - - - -
06/12:00pm 24.9 E 12 19 1018.3 - 0.0 - - - - - - -
06/11:30am 24.8 ENE 11 16 1018.4 - 0.0 - - - - - - -
06/11:00am 24.1 ENE 11 17 1018.5 - 0.0 - - - - - - -
06/10:30am 23.4 ENE 10 16 1018.5 - 0.0 - - - - - - -
06/10:00am 22.3 ENE 10 14 1018.7 - 0.0 - - - - - - -
06/09:30am 21.2 ENE 11 16 1018.8 - 0.0 - - - - - - -
06/09:00am 20.4 NE 12 17 1018.9 - 0.0 - - - - - - -
06/08:30am 18.7 NE 9 13 1019.0 - 0.0 - - - - - - -

Other Formats:

Comma delimited format used in spreadsheet applications
http://www.bom.gov.au/fwo/IDV60701/IDV60701.95890.axf

JavaScript Object Notation format (JSON) in row-major order
http://www.bom.gov.au/fwo/IDV60701/IDV60701.95890.json